WSAP METAR and TAF | Updated Today

WSAP METAR

Paya Lebar Air Base

Observation time: 16 min. ago

WSAP 062000Z 33003KT 9999 FEW018 BKN150 25/21 Q1009

Need help? Read our tutorial on how to read METARs or read the parsed version below.

Paya Lebar Air Base (WSAP) METAR

  • Weather conditions on Mon, 06 Feb 2023 20:00:00 +0000 (16 min. ago):
  • Present conditions: Dry
  • Clouds: A few at 549 meters; broken sky at 4572 meters
  • Visibility: Greater than 10 km
  • Wind: 330 degrees at 3 knots
  • Temperature: 25 celsius
  • Dew point: 21 celsius
  • Pressure: 1009 millibars
  • Remarks: None


Useful to know...

WSAP TAF

Paya Lebar Air Base

TAF WSAP 061700Z 0618/0800 34008KT 9999 FEW015 BKN030 TEMPO 0707/0710 4000 SHRA FEW012CB BKN015
Observation time: 3:16 hr. ago
Need help? Read our tutorial on how to read TAFs or read the parsed version below.

Parsed version of TAF for Paya Lebar Air Base (WSAP)

  • From 06 February at 18:00 UTC, to day 08 of the month at 00:00 UTC
  • Clouds: A few at 457 meters; broken sky at 914 meters
  • Visibility: Greater than 10 km
  • Wind: 340 degrees at 8
  • Expected to arise temporarily, from 07 February at 07:00 UTC, to day 07 of the month at 10:00 UTC
  • Clouds: A few at 366 meters, cumulonimbus; broken sky at 457 meters
  • Visibility: 4000 meters
  • Other: Showers of rain